Time;durP1;ratioP1;P1;durP2;ratioP2;P2;SDS_P1;SDS_P2;PMS_P1;PMS_P2;Temp;Humidity;BMP_temperature;BMP_pressure;BME280_temperature;BME280_humidity;BME280_pressure;Samples;Min_cycle;Max_cycle;Signal;HPM_P1;HPM_P2
2021/09/11 00:01:27;;;;;;;24.52;14.68;;;;;;;;;;5052432;28;20041;-80
2021/09/11 00:03:53;;;;;;;22.25;13.23;;;;;;;;;;5053425;28;20037;-79
2021/09/11 00:06:18;;;;;;;22.45;14.82;;;;;;;;;;5052139;28;20017;-79
2021/09/11 00:08:43;;;;;;;20.75;13.63;;;;;;;;;;5052506;28;20025;-79
2021/09/11 00:11:09;;;;;;;24.50;15.00;;;;;;;;;;5052601;28;20041;-79
2021/09/11 00:13:34;;;;;;;23.75;15.05;;;;;;;;;;5052284;28;20036;-79
2021/09/11 00:15:59;;;;;;;28.38;16.17;;;;;;;;;;5053145;28;20036;-79
2021/09/11 00:18:24;;;;;;;25.65;15.35;;;;;;;;;;5051885;28;20025;-78
2021/09/11 00:20:50;;;;;;;31.58;16.55;;;;;;;;;;5050895;28;20033;-79
2021/09/11 00:23:15;;;;;;;24.92;16.38;;;;;;;;;;5052549;28;20039;-79
2021/09/11 00:25:40;;;;;;;31.90;17.13;;;;;;;;;;5052269;28;20033;-79
2021/09/11 00:28:06;;;;;;;36.72;18.45;;;;;;;;;;5052448;28;20029;-78
2021/09/11 00:30:31;;;;;;;38.10;19.35;;;;;;;;;;5047591;28;20025;-78
2021/09/11 00:32:56;;;;;;;38.70;19.25;;;;;;;;;;5032237;28;20429;-81
2021/09/11 00:35:22;;;;;;;38.22;18.85;;;;;;;;;;5050838;28;20338;-79
2021/09/11 00:37:47;;;;;;;33.78;18.33;;;;;;;;;;5051569;28;20033;-79
2021/09/11 00:40:13;;;;;;;32.92;17.92;;;;;;;;;;5053299;28;20041;-79
2021/09/11 00:42:41;;;;;;;46.28;18.55;;;;;;;;;;5051363;28;20024;-79
2021/09/11 00:45:07;;;;;;;35.97;17.13;;;;;;;;;;5052059;28;21016;-79
2021/09/11 00:47:32;;;;;;;33.35;17.23;;;;;;;;;;5050299;28;20033;-78
2021/09/11 00:49:57;;;;;;;32.33;16.75;;;;;;;;;;5052057;28;20074;-81
2021/09/11 00:52:23;;;;;;;28.67;16.20;;;;;;;;;;5051426;28;20420;-79
2021/09/11 00:54:49;;;;;;;32.35;17.42;;;;;;;;;;5052500;28;20033;-81
2021/09/11 00:57:14;;;;;;;27.48;16.38;;;;;;;;;;5051489;28;20358;-79
2021/09/11 00:59:39;;;;;;;31.55;16.05;;;;;;;;;;5051907;28;20482;-79
2021/09/11 01:02:05;;;;;;;31.30;15.90;;;;;;;;;;5051589;28;20115;-78
2021/09/11 01:04:30;;;;;;;33.47;15.55;;;;;;;;;;5050851;28;20104;-83
2021/09/11 01:06:57;;;;;;;34.03;15.98;;;;;;;;;;5049788;28;20040;-79
2021/09/11 01:09:22;;;;;;;28.23;15.85;;;;;;;;;;5051239;28;20033;-79
2021/09/11 01:11:47;;;;;;;27.92;16.23;;;;;;;;;;5050975;28;20032;-78
2021/09/11 01:14:13;;;;;;;36.30;18.00;;;;;;;;;;5051255;28;20025;-78
2021/09/11 01:16:38;;;;;;;31.65;18.95;;;;;;;;;;5051114;28;20039;-79
2021/09/11 01:19:03;;;;;;;33.13;19.50;;;;;;;;;;5050199;28;20113;-82
2021/09/11 01:21:28;;;;;;;35.58;18.60;;;;;;;;;;5051557;28;20505;-79
2021/09/11 01:23:54;;;;;;;32.08;18.50;;;;;;;;;;5051685;28;20045;-79
2021/09/11 01:26:19;;;;;;;38.95;18.52;;;;;;;;;;5050990;28;20435;-80
2021/09/11 01:28:44;;;;;;;40.60;19.30;;;;;;;;;;5051071;28;20029;-79
2021/09/11 01:31:10;;;;;;;42.85;19.65;;;;;;;;;;5051168;28;20549;-82
2021/09/11 01:33:35;;;;;;;33.58;20.80;;;;;;;;;;5051783;28;20052;-78
2021/09/11 01:36:00;;;;;;;42.78;20.80;;;;;;;;;;5050649;28;20132;-81
2021/09/11 01:38:25;;;;;;;38.53;19.73;;;;;;;;;;5050962;28;20071;-80
2021/09/11 01:40:51;;;;;;;44.50;21.08;;;;;;;;;;5051095;28;20037;-79
2021/09/11 01:43:25;;;;;;;40.80;20.10;;;;;;;;;;5050681;28;20417;-79
2021/09/11 01:45:52;;;;;;;43.03;20.30;;;;;;;;;;5050960;28;20480;-78
2021/09/11 01:48:17;;;;;;;37.38;19.05;;;;;;;;;;5050781;28;20028;-83
2021/09/11 01:50:42;;;;;;;33.08;18.00;;;;;;;;;;5051448;28;20037;-79
2021/09/11 01:53:07;;;;;;;31.92;19.33;;;;;;;;;;5050729;28;20032;-79
2021/09/11 01:55:33;;;;;;;34.10;19.10;;;;;;;;;;5050505;28;20122;-80
2021/09/11 01:57:58;;;;;;;33.92;19.15;;;;;;;;;;5050075;28;20037;-79
2021/09/11 02:00:23;;;;;;;33.50;18.27;;;;;;;;;;5050483;28;20065;-80
2021/09/11 02:02:49;;;;;;;38.63;19.73;;;;;;;;;;5050852;28;20020;-79
2021/09/11 02:05:15;;;;;;;42.50;19.05;;;;;;;;;;5050689;28;20907;-80
2021/09/11 02:07:41;;;;;;;36.67;19.02;;;;;;;;;;5050009;28;20025;-79
2021/09/11 02:10:07;;;;;;;34.75;18.65;;;;;;;;;;5050571;28;20021;-79
2021/09/11 02:12:32;;;;;;;35.53;17.40;;;;;;;;;;5049998;28;20025;-79
2021/09/11 02:14:58;;;;;;;40.78;17.15;;;;;;;;;;5051193;28;20361;-79
2021/09/11 02:17:23;;;;;;;37.92;18.17;;;;;;;;;;5050029;28;20063;-80
2021/09/11 02:19:48;;;;;;;28.00;17.80;;;;;;;;;;5050238;28;20465;-79
2021/09/11 02:22:14;;;;;;;34.28;17.58;;;;;;;;;;5042646;28;20078;-80
2021/09/11 02:24:39;;;;;;;28.55;17.42;;;;;;;;;;5050089;28;20027;-79
2021/09/11 02:27:05;;;;;;;33.35;17.40;;;;;;;;;;5049321;28;20040;-82
2021/09/11 02:29:31;;;;;;;29.33;17.45;;;;;;;;;;5050133;28;20044;-79
2021/09/11 02:31:56;;;;;;;30.13;16.50;;;;;;;;;;5049567;28;20160;-79
2021/09/11 02:34:22;;;;;;;32.25;16.85;;;;;;;;;;5049981;28;20034;-79
2021/09/11 02:36:47;;;;;;;36.15;17.83;;;;;;;;;;5049543;28;20060;-79
2021/09/11 02:39:13;;;;;;;45.05;18.75;;;;;;;;;;5050318;28;20029;-79
2021/09/11 02:41:38;;;;;;;39.67;18.90;;;;;;;;;;5050332;28;20040;-79
2021/09/11 02:44:04;;;;;;;44.45;19.02;;;;;;;;;;5049811;28;20025;-79
2021/09/11 02:46:32;;;;;;;48.00;18.27;;;;;;;;;;5049509;28;20017;-79
2021/09/11 02:48:58;;;;;;;45.90;20.30;;;;;;;;;;5049718;28;20036;-79
2021/09/11 02:51:25;;;;;;;38.50;19.25;;;;;;;;;;5049971;28;20017;-80
2021/09/11 02:53:50;;;;;;;45.83;20.15;;;;;;;;;;5049761;28;20017;-79
2021/09/11 02:56:15;;;;;;;46.08;20.35;;;;;;;;;;5050487;28;20126;-79
2021/09/11 02:58:40;;;;;;;36.00;18.67;;;;;;;;;;5049364;28;20029;-79
2021/09/11 03:01:06;;;;;;;40.08;18.83;;;;;;;;;;5049749;28;20036;-80
2021/09/11 03:03:31;;;;;;;42.45;18.15;;;;;;;;;;5049538;28;20037;-79
2021/09/11 03:05:56;;;;;;;42.25;18.95;;;;;;;;;;5049129;28;20401;-80
2021/09/11 03:08:21;;;;;;;47.03;19.30;;;;;;;;;;5050094;28;20075;-79
2021/09/11 03:10:47;;;;;;;47.47;20.63;;;;;;;;;;5051834;28;20390;-79
2021/09/11 03:13:13;;;;;;;47.72;20.38;;;;;;;;;;5053669;28;20024;-79
2021/09/11 03:15:38;;;;;;;52.38;19.50;;;;;;;;;;5053996;28;20025;-79
2021/09/11 03:18:03;;;;;;;43.15;19.83;;;;;;;;;;5053274;28;20036;-79
2021/09/11 03:20:29;;;;;;;50.65;20.60;;;;;;;;;;5054317;28;20039;-80
2021/09/11 03:22:54;;;;;;;51.60;20.80;;;;;;;;;;5053516;28;20025;-80
2021/09/11 03:25:19;;;;;;;51.90;20.38;;;;;;;;;;5053541;28;20059;-79
2021/09/11 03:27:44;;;;;;;63.75;21.58;;;;;;;;;;5052834;28;20368;-79
2021/09/11 03:30:10;;;;;;;56.53;20.35;;;;;;;;;;5053738;28;20106;-80
2021/09/11 03:32:35;;;;;;;58.25;21.65;;;;;;;;;;5053712;28;20053;-83
2021/09/11 03:35:01;;;;;;;56.50;20.20;;;;;;;;;;5053679;28;20025;-79
2021/09/11 03:37:26;;;;;;;68.53;22.17;;;;;;;;;;5053098;28;20098;-79
2021/09/11 03:39:51;;;;;;;63.17;20.75;;;;;;;;;;5053035;28;20076;-78
2021/09/11 03:42:16;;;;;;;54.55;20.23;;;;;;;;;;5053100;28;20029;-79
2021/09/11 03:44:42;;;;;;;72.40;22.33;;;;;;;;;;5053191;28;20060;-79
2021/09/11 03:47:07;;;;;;;68.65;21.80;;;;;;;;;;5053971;28;20446;-79
2021/09/11 03:49:32;;;;;;;67.07;21.42;;;;;;;;;;5053104;28;20567;-79
2021/09/11 03:51:57;;;;;;;65.97;20.80;;;;;;;;;;5053145;28;20029;-78
2021/09/11 03:54:23;;;;;;;75.45;22.77;;;;;;;;;;5052859;28;20111;-79
2021/09/11 03:56:48;;;;;;;86.22;23.25;;;;;;;;;;5052451;28;20021;-80
2021/09/11 03:59:13;;;;;;;92.40;23.02;;;;;;;;;;5053275;28;20021;-79
2021/09/11 04:01:38;;;;;;;95.10;23.65;;;;;;;;;;5052868;28;20086;-79
2021/09/11 04:04:04;;;;;;;90.93;24.10;;;;;;;;;;5052477;28;20028;-78
2021/09/11 04:06:29;;;;;;;94.80;22.75;;;;;;;;;;5052687;28;20385;-79
2021/09/11 04:08:54;;;;;;;79.82;22.63;;;;;;;;;;5052312;28;20025;-79
2021/09/11 04:11:20;;;;;;;92.95;24.48;;;;;;;;;;5053452;28;20044;-78
2021/09/11 04:13:45;;;;;;;92.82;22.30;;;;;;;;;;5052192;28;20021;-79
2021/09/11 04:16:10;;;;;;;94.32;25.15;;;;;;;;;;5052373;28;20086;-78
2021/09/11 04:18:35;;;;;;;87.07;22.48;;;;;;;;;;5052388;28;20442;-78
2021/09/11 04:21:01;;;;;;;140.43;26.88;;;;;;;;;;5051171;28;20066;-79
2021/09/11 04:23:26;;;;;;;104.95;24.90;;;;;;;;;;5052512;28;20036;-78
2021/09/11 04:25:51;;;;;;;123.78;25.13;;;;;;;;;;5052320;28;20060;-80
2021/09/11 04:28:17;;;;;;;99.82;23.35;;;;;;;;;;5051870;28;20017;-78
2021/09/11 04:30:42;;;;;;;104.32;24.65;;;;;;;;;;5052722;28;20033;-79
2021/09/11 04:33:07;;;;;;;98.93;21.77;;;;;;;;;;5051956;28;20848;-79
2021/09/11 04:35:33;;;;;;;83.65;23.02;;;;;;;;;;5052715;28;20021;-79
2021/09/11 04:37:59;;;;;;;99.18;25.10;;;;;;;;;;5051901;28;20041;-78
2021/09/11 04:40:24;;;;;;;100.95;25.45;;;;;;;;;;5051882;28;20480;-79
2021/09/11 04:42:49;;;;;;;94.45;23.92;;;;;;;;;;5052227;28;20021;-80
2021/09/11 04:45:15;;;;;;;95.60;25.58;;;;;;;;;;5052019;28;20461;-79
2021/09/11 04:47:40;;;;;;;135.40;27.33;;;;;;;;;;5052139;28;20183;-82
2021/09/11 04:50:06;;;;;;;103.35;24.70;;;;;;;;;;5052274;28;20025;-78
2021/09/11 04:52:31;;;;;;;137.25;26.15;;;;;;;;;;5051887;28;20073;-79
2021/09/11 04:54:56;;;;;;;177.10;26.52;;;;;;;;;;5051863;28;20031;-78
2021/09/11 04:57:22;;;;;;;160.80;27.17;;;;;;;;;;5051793;28;20059;-78
2021/09/11 04:59:47;;;;;;;173.20;29.67;;;;;;;;;;5051543;28;20111;-81
2021/09/11 05:02:12;;;;;;;145.43;26.95;;;;;;;;;;5052435;28;20114;-78
2021/09/11 05:04:37;;;;;;;150.38;27.58;;;;;;;;;;5051247;28;20048;-79
2021/09/11 05:07:03;;;;;;;111.32;25.08;;;;;;;;;;5051333;28;20029;-78
2021/09/11 05:09:28;;;;;;;106.28;24.10;;;;;;;;;;5051663;28;20021;-79
2021/09/11 05:11:53;;;;;;;127.25;26.35;;;;;;;;;;5051808;28;20416;-78
2021/09/11 05:14:19;;;;;;;250.07;31.30;;;;;;;;;;5052541;28;20044;-78
2021/09/11 05:16:44;;;;;;;198.05;31.92;;;;;;;;;;5050875;28;20013;-79
2021/09/11 05:19:10;;;;;;;121.20;28.33;;;;;;;;;;5051455;28;20021;-78
2021/09/11 05:21:35;;;;;;;125.65;27.92;;;;;;;;;;5051347;28;20041;-79
2021/09/11 05:24:00;;;;;;;118.65;27.13;;;;;;;;;;5049358;28;20025;-78
2021/09/11 05:26:25;;;;;;;136.25;30.30;;;;;;;;;;5050459;28;20508;-78
2021/09/11 05:28:51;;;;;;;129.02;28.52;;;;;;;;;;5050626;28;20078;-79
2021/09/11 05:31:16;;;;;;;153.05;29.20;;;;;;;;;;5050769;28;20043;-79
2021/09/11 05:33:41;;;;;;;173.95;30.88;;;;;;;;;;5050188;28;20052;-78
2021/09/11 05:36:07;;;;;;;159.10;29.00;;;;;;;;;;5050574;28;20425;-79
2021/09/11 05:38:33;;;;;;;200.82;31.73;;;;;;;;;;5051636;28;20017;-79
2021/09/11 05:40:58;;;;;;;137.40;27.48;;;;;;;;;;5050940;28;20484;-79
2021/09/11 05:43:24;;;;;;;164.32;28.60;;;;;;;;;;5051013;28;20036;-78
2021/09/11 05:45:50;;;;;;;93.60;25.50;;;;;;;;;;5050948;28;20519;-78
2021/09/11 05:48:15;;;;;;;135.57;26.45;;;;;;;;;;5050294;28;20100;-79
2021/09/11 05:50:41;;;;;;;115.55;25.33;;;;;;;;;;5051527;28;20029;-81
2021/09/11 05:53:06;;;;;;;139.30;26.27;;;;;;;;;;5051162;28;20528;-79
2021/09/11 05:55:31;;;;;;;143.38;25.40;;;;;;;;;;5050710;28;20056;-79
2021/09/11 05:57:57;;;;;;;129.25;24.35;;;;;;;;;;5050785;28;20032;-80
2021/09/11 06:00:22;;;;;;;150.55;26.73;;;;;;;;;;5050616;28;20090;-79
2021/09/11 06:02:47;;;;;;;168.60;27.20;;;;;;;;;;5049466;28;20021;-79
2021/09/11 06:05:13;;;;;;;197.15;29.25;;;;;;;;;;5051463;28;20469;-79
2021/09/11 06:07:40;;;;;;;222.52;27.08;;;;;;;;;;5050265;28;20025;-79
2021/09/11 06:10:05;;;;;;;130.43;25.13;;;;;;;;;;5050698;28;20457;-79
2021/09/11 06:12:30;;;;;;;120.55;24.23;;;;;;;;;;5050523;28;20058;-79
2021/09/11 06:14:56;;;;;;;127.50;24.02;;;;;;;;;;5050676;28;20122;-79
2021/09/11 06:17:21;;;;;;;168.82;26.83;;;;;;;;;;5050302;28;20025;-79
2021/09/11 06:19:46;;;;;;;116.60;24.00;;;;;;;;;;5050324;28;20175;-79
2021/09/11 06:22:13;;;;;;;133.80;23.73;;;;;;;;;;5050459;28;20021;-78
2021/09/11 06:24:39;;;;;;;190.68;26.08;;;;;;;;;;5050019;28;20174;-80
2021/09/11 06:27:04;;;;;;;125.13;24.23;;;;;;;;;;5049773;28;20517;-79
2021/09/11 06:29:30;;;;;;;155.40;24.15;;;;;;;;;;5050017;28;20027;-81
2021/09/11 06:31:55;;;;;;;187.73;27.08;;;;;;;;;;5050654;28;20370;-79
2021/09/11 06:34:20;;;;;;;140.10;22.98;;;;;;;;;;5049912;28;20047;-81
2021/09/11 06:36:46;;;;;;;98.82;19.08;;;;;;;;;;5049621;28;20045;-79
2021/09/11 06:39:11;;;;;;;43.22;16.95;;;;;;;;;;5049950;28;20457;-79
2021/09/11 06:41:36;;;;;;;74.88;20.58;;;;;;;;;;5049691;28;20041;-80
2021/09/11 06:44:01;;;;;;;53.42;17.70;;;;;;;;;;5050046;28;20017;-79
2021/09/11 06:46:27;;;;;;;49.35;18.05;;;;;;;;;;5049370;28;20549;-78
2021/09/11 06:48:52;;;;;;;41.70;15.07;;;;;;;;;;5049693;28;20087;-81
2021/09/11 06:51:17;;;;;;;29.88;13.40;;;;;;;;;;5049653;28;20017;-79
2021/09/11 06:53:43;;;;;;;33.20;14.23;;;;;;;;;;5050082;28;20462;-76
2021/09/11 06:56:08;;;;;;;20.98;10.63;;;;;;;;;;5050468;28;20032;-76
2021/09/11 06:58:33;;;;;;;29.20;12.68;;;;;;;;;;5049448;28;20492;-79
2021/09/11 07:01:00;;;;;;;23.67;10.77;;;;;;;;;;5049515;28;20040;-75
2021/09/11 07:03:25;;;;;;;19.58;10.27;;;;;;;;;;5049992;28;20037;-77
2021/09/11 07:05:51;;;;;;;17.23;9.23;;;;;;;;;;5049823;28;20138;-79
2021/09/11 07:08:16;;;;;;;13.93;9.15;;;;;;;;;;5050762;28;20029;-78
2021/09/11 07:10:44;;;;;;;11.25;6.85;;;;;;;;;;5050041;28;20040;-79
2021/09/11 07:13:09;;;;;;;12.43;6.80;;;;;;;;;;5049738;28;20036;-77
2021/09/11 07:15:35;;;;;;;13.77;7.28;;;;;;;;;;5049530;28;20385;-78
2021/09/11 07:18:00;;;;;;;9.63;6.03;;;;;;;;;;5048849;28;20036;-78
2021/09/11 07:20:26;;;;;;;14.68;6.38;;;;;;;;;;5043064;28;20079;-77
2021/09/11 07:22:51;;;;;;;12.27;6.40;;;;;;;;;;5037461;28;20029;-77
2021/09/11 07:25:17;;;;;;;10.13;6.60;;;;;;;;;;5029174;28;20061;-78
2021/09/11 07:27:42;;;;;;;7.65;5.65;;;;;;;;;;5028954;28;20029;-78
2021/09/11 07:30:08;;;;;;;7.07;4.82;;;;;;;;;;5029440;28;20053;-78
2021/09/11 07:32:33;;;;;;;6.93;4.35;;;;;;;;;;5028917;28;20478;-79
2021/09/11 07:34:58;;;;;;;8.73;5.07;;;;;;;;;;5029831;28;20040;-78
2021/09/11 07:37:23;;;;;;;9.05;4.95;;;;;;;;;;5042659;28;20029;-79
2021/09/11 07:39:49;;;;;;;6.93;4.45;;;;;;;;;;5048998;28;20029;-78
2021/09/11 07:42:14;;;;;;;5.53;4.32;;;;;;;;;;5046150;28;20071;-78
2021/09/11 07:44:40;;;;;;;4.38;3.58;;;;;;;;;;5045979;28;20025;-78
2021/09/11 07:47:05;;;;;;;5.18;3.22;;;;;;;;;;5049606;28;20033;-78
2021/09/11 07:49:30;;;;;;;5.55;3.10;;;;;;;;;;5048447;28;20021;-78
2021/09/11 07:51:56;;;;;;;3.13;2.70;;;;;;;;;;5049670;28;20017;-79
2021/09/11 07:54:21;;;;;;;7.13;3.40;;;;;;;;;;5050109;28;20048;-80
2021/09/11 07:56:46;;;;;;;4.53;2.78;;;;;;;;;;5067004;28;20025;-79
2021/09/11 07:59:11;;;;;;;4.28;2.63;;;;;;;;;;5056949;28;20461;-82
2021/09/11 08:01:37;;;;;;;4.70;2.63;;;;;;;;;;5065108;28;20043;-79
2021/09/11 08:04:02;;;;;;;4.63;2.83;;;;;;;;;;5063021;28;20354;-78
2021/09/11 08:06:27;;;;;;;3.63;2.67;;;;;;;;;;5056220;28;20277;-79
2021/09/11 08:08:53;;;;;;;4.30;2.50;;;;;;;;;;5067147;28;20040;-80
2021/09/11 08:11:18;;;;;;;3.63;2.30;;;;;;;;;;5055708;28;20017;-83
2021/09/11 08:13:43;;;;;;;5.20;2.58;;;;;;;;;;5062743;28;20265;-79
2021/09/11 08:16:09;;;;;;;5.28;2.92;;;;;;;;;;5062694;28;20871;-79
2021/09/11 08:18:34;;;;;;;3.30;2.10;;;;;;;;;;5049549;28;20416;-80
2021/09/11 08:20:59;;;;;;;3.83;2.17;;;;;;;;;;5054793;28;20063;-80
2021/09/11 08:23:25;;;;;;;4.15;2.20;;;;;;;;;;5052555;28;20394;-78
2021/09/11 08:25:50;;;;;;;2.58;1.80;;;;;;;;;;5061596;28;20031;-78
2021/09/11 08:28:16;;;;;;;3.22;2.10;;;;;;;;;;5071947;28;20189;-79
2021/09/11 08:30:41;;;;;;;5.13;2.40;;;;;;;;;;5055829;28;20072;-78
2021/09/11 08:33:09;;;;;;;3.03;2.20;;;;;;;;;;5068599;28;20041;-77
2021/09/11 08:35:34;;;;;;;4.50;2.20;;;;;;;;;;5055823;28;20233;-79
2021/09/11 08:37:59;;;;;;;3.35;1.92;;;;;;;;;;5050879;28;20040;-85
2021/09/11 08:40:25;;;;;;;2.63;1.80;;;;;;;;;;5052025;28;20412;-80
2021/09/11 08:42:50;;;;;;;7.90;2.13;;;;;;;;;;5051563;28;20283;-79
2021/09/11 08:45:16;;;;;;;2.60;2.00;;;;;;;;;;5052045;28;20505;-79
2021/09/11 08:47:43;;;;;;;4.32;2.30;;;;;;;;;;5051237;28;20036;-79
2021/09/11 08:50:08;;;;;;;3.65;2.60;;;;;;;;;;5051152;28;20484;-81
2021/09/11 08:52:34;;;;;;;3.08;2.33;;;;;;;;;;5052577;28;20025;-79
2021/09/11 08:54:59;;;;;;;3.28;2.50;;;;;;;;;;5051657;28;20044;-79
2021/09/11 08:57:25;;;;;;;4.35;2.55;;;;;;;;;;5035828;28;20030;-80
2021/09/11 08:59:51;;;;;;;3.75;2.88;;;;;;;;;;5031211;28;20045;-79
2021/09/11 09:02:17;;;;;;;4.70;2.72;;;;;;;;;;5031753;28;20030;-80
2021/09/11 09:04:47;;;;;;;5.32;2.90;;;;;;;;;;5040439;28;20131;-79
2021/09/11 09:07:27;;;;;;;4.03;2.60;;;;;;;;;;5039633;28;20060;-84
2021/09/11 09:09:56;;;;;;;3.70;2.85;;;;;;;;;;5040401;28;20541;-79
2021/09/11 09:12:21;;;;;;;8.50;2.92;;;;;;;;;;5051463;28;20037;-78
2021/09/11 09:15:05;;;;;;;4.90;2.97;;;;;;;;;;5051903;28;20023;-78
2021/09/11 09:17:47;;;;;;;5.43;3.05;;;;;;;;;;5051245;28;20147;-78
2021/09/11 09:20:23;;;;;;;6.90;3.40;;;;;;;;;;5051765;28;20020;-78
2021/09/11 09:22:58;;;;;;;3.85;3.17;;;;;;;;;;5051277;28;20580;-78
2021/09/11 09:25:26;;;;;;;4.30;3.55;;;;;;;;;;5051395;28;20029;-78
2021/09/11 09:27:53;;;;;;;5.35;3.70;;;;;;;;;;5051261;28;20033;-79
2021/09/11 09:30:19;;;;;;;4.97;3.65;;;;;;;;;;5051781;28;20385;-78
2021/09/11 09:32:47;;;;;;;4.35;3.17;;;;;;;;;;5051299;28;20049;-78
2021/09/11 09:35:16;;;;;;;6.03;3.75;;;;;;;;;;5050986;28;20028;-79
2021/09/11 09:38:04;;;;;;;6.90;3.70;;;;;;;;;;5050873;28;20041;-78
2021/09/11 09:40:35;;;;;;;7.10;3.53;;;;;;;;;;5050877;28;20036;-78
2021/09/11 09:43:01;;;;;;;5.72;3.90;;;;;;;;;;5051476;28;20130;-77
2021/09/11 09:45:30;;;;;;;4.95;4.00;;;;;;;;;;5051398;28;20493;-77
2021/09/11 09:48:04;;;;;;;4.80;4.05;;;;;;;;;;5051292;28;20029;-78
2021/09/11 09:50:34;;;;;;;5.07;3.80;;;;;;;;;;5050801;28;20032;-83
2021/09/11 09:53:00;;;;;;;5.43;4.18;;;;;;;;;;5051531;28;20029;-78
2021/09/11 09:55:26;;;;;;;5.45;4.13;;;;;;;;;;5050664;28;20045;-79
2021/09/11 09:57:51;;;;;;;6.20;4.57;;;;;;;;;;5050565;28;20017;-79
2021/09/11 10:00:17;;;;;;;5.93;3.83;;;;;;;;;;5050433;28;20083;-79
2021/09/11 10:02:42;;;;;;;6.85;3.92;;;;;;;;;;5050895;28;20071;-78
2021/09/11 10:05:11;;;;;;;6.07;3.67;;;;;;;;;;5050398;28;20024;-78
2021/09/11 10:07:36;;;;;;;5.63;3.83;;;;;;;;;;5050828;28;20033;-78
2021/09/11 10:10:02;;;;;;;5.05;3.90;;;;;;;;;;5050545;28;20025;-77
2021/09/11 10:12:34;;;;;;;4.63;3.83;;;;;;;;;;5050654;28;20393;-77
2021/09/11 10:15:18;;;;;;;5.65;4.35;;;;;;;;;;5050451;28;20033;-79
2021/09/11 10:17:43;;;;;;;5.38;3.85;;;;;;;;;;5049793;28;20379;-77
2021/09/11 10:20:08;;;;;;;5.97;3.92;;;;;;;;;;5050461;28;20051;-77
2021/09/11 10:22:36;;;;;;;6.18;4.28;;;;;;;;;;5050970;28;20068;-77
2021/09/11 10:25:02;;;;;;;5.63;3.70;;;;;;;;;;5040091;28;20079;-78
2021/09/11 10:27:38;;;;;;;6.82;4.10;;;;;;;;;;5040980;28;20520;-78
2021/09/11 10:30:10;;;;;;;5.15;4.00;;;;;;;;;;5036690;28;20021;-78
2021/09/11 10:32:40;;;;;;;6.78;4.10;;;;;;;;;;5049762;28;20045;-79
2021/09/11 10:35:08;;;;;;;6.45;4.07;;;;;;;;;;5029432;28;20041;-77
2021/09/11 10:37:38;;;;;;;5.85;4.15;;;;;;;;;;5045008;28;20112;-78
2021/09/11 10:40:22;;;;;;;4.80;3.80;;;;;;;;;;5049470;28;20021;-78
2021/09/11 10:43:06;;;;;;;6.10;4.05;;;;;;;;;;5050100;28;20038;-78
2021/09/11 10:45:37;;;;;;;7.45;4.22;;;;;;;;;;5049871;28;20032;-77
2021/09/11 10:48:06;;;;;;;6.47;4.28;;;;;;;;;;5049909;28;20112;-78
2021/09/11 10:50:38;;;;;;;7.25;4.18;;;;;;;;;;5049739;28;20021;-78
2021/09/11 10:53:20;;;;;;;9.13;4.45;;;;;;;;;;5049959;28;20051;-78
2021/09/11 10:55:45;;;;;;;6.32;4.38;;;;;;;;;;5048153;28;20389;-78
2021/09/11 10:58:26;;;;;;;7.35;3.80;;;;;;;;;;5049656;28;20033;-78
2021/09/11 11:00:58;;;;;;;7.43;3.80;;;;;;;;;;5050278;28;20037;-78
2021/09/11 11:03:24;;;;;;;4.00;3.08;;;;;;;;;;5049356;28;20035;-78
2021/09/11 11:06:02;;;;;;;4.93;3.63;;;;;;;;;;5049920;28;20020;-78
2021/09/11 11:08:31;;;;;;;6.55;3.67;;;;;;;;;;5049383;28;20495;-80
2021/09/11 11:10:57;;;;;;;4.95;3.65;;;;;;;;;;5049346;28;20091;-79
2021/09/11 11:13:23;;;;;;;5.75;3.78;;;;;;;;;;5049620;28;20553;-77
2021/09/11 11:15:57;;;;;;;5.25;3.72;;;;;;;;;;5050138;28;20120;-78
2021/09/11 11:18:26;;;;;;;6.70;3.40;;;;;;;;;;5049683;28;20103;-78
2021/09/11 11:20:52;;;;;;;6.43;3.85;;;;;;;;;;5049327;28;20037;-78
2021/09/11 11:23:17;;;;;;;5.00;3.47;;;;;;;;;;5049267;28;20374;-79
2021/09/11 11:25:42;;;;;;;4.57;3.03;;;;;;;;;;5049267;28;20027;-80
2021/09/11 11:28:09;;;;;;;7.28;3.33;;;;;;;;;;5049775;28;20026;-78
2021/09/11 11:30:35;;;;;;;5.15;3.63;;;;;;;;;;5049562;28;20495;-78
2021/09/11 11:33:01;;;;;;;5.18;3.55;;;;;;;;;;5053390;28;20053;-78
2021/09/11 11:35:28;;;;;;;7.93;3.72;;;;;;;;;;5053584;28;20025;-78
2021/09/11 11:37:53;;;;;;;5.35;3.53;;;;;;;;;;5040621;28;20033;-81
2021/09/11 11:40:19;;;;;;;9.23;3.42;;;;;;;;;;5034396;28;20021;-83
2021/09/11 11:42:44;;;;;;;4.65;3.63;;;;;;;;;;5038225;28;20032;-78
2021/09/11 11:45:11;;;;;;;5.82;3.83;;;;;;;;;;5052236;28;20025;-78
2021/09/11 11:47:45;;;;;;;9.93;3.78;;;;;;;;;;5051857;28;20013;-79
2021/09/11 11:50:17;;;;;;;8.93;3.45;;;;;;;;;;5052502;28;20082;-80
2021/09/11 11:52:43;;;;;;;6.65;2.92;;;;;;;;;;5050086;28;20033;-79
2021/09/11 11:55:09;;;;;;;5.45;3.15;;;;;;;;;;5052847;28;20100;-78
2021/09/11 11:57:34;;;;;;;8.18;3.80;;;;;;;;;;5052410;28;20120;-79
2021/09/11 12:00:01;;;;;;;6.13;3.30;;;;;;;;;;5052790;28;20434;-79
2021/09/11 12:02:29;;;;;;;7.43;3.70;;;;;;;;;;5053027;28;20036;-78
2021/09/11 12:05:09;;;;;;;6.05;3.38;;;;;;;;;;5053346;28;20454;-78
2021/09/11 12:07:35;;;;;;;8.00;3.60;;;;;;;;;;5052166;28;20044;-79
2021/09/11 12:10:00;;;;;;;7.05;3.78;;;;;;;;;;5045554;28;20086;-78
2021/09/11 12:12:44;;;;;;;7.63;3.55;;;;;;;;;;5033936;28;20044;-78
2021/09/11 12:15:11;;;;;;;9.02;3.80;;;;;;;;;;5032245;28;20075;-78
2021/09/11 12:17:36;;;;;;;8.48;3.95;;;;;;;;;;5032042;28;20386;-83
2021/09/11 12:20:14;;;;;;;4.95;3.08;;;;;;;;;;5037322;28;20029;-79
2021/09/11 12:22:39;;;;;;;5.40;3.25;;;;;;;;;;5051533;28;20029;-79
2021/09/11 12:25:05;;;;;;;6.38;3.22;;;;;;;;;;5052380;28;20042;-79
2021/09/11 12:27:30;;;;;;;5.50;2.95;;;;;;;;;;5051932;28;20071;-78
2021/09/11 12:30:05;;;;;;;6.47;2.92;;;;;;;;;;5052548;28;20025;-79
2021/09/11 12:32:31;;;;;;;5.35;2.65;;;;;;;;;;5052620;28;20052;-79
2021/09/11 12:35:05;;;;;;;5.43;3.03;;;;;;;;;;5052507;28;20539;-79
2021/09/11 12:37:30;;;;;;;9.38;3.20;;;;;;;;;;5052220;28;20033;-78
2021/09/11 12:39:56;;;;;;;9.77;2.78;;;;;;;;;;5044265;28;20056;-78
2021/09/11 12:42:22;;;;;;;3.80;2.67;;;;;;;;;;5035661;28;20474;-79
2021/09/11 12:44:48;;;;;;;5.65;3.58;;;;;;;;;;5052013;28;20032;-79
2021/09/11 12:47:13;;;;;;;3.88;2.65;;;;;;;;;;5042792;28;20025;-79
2021/09/11 12:49:39;;;;;;;5.30;2.80;;;;;;;;;;5032277;28;20363;-81
2021/09/11 12:52:06;;;;;;;4.82;2.78;;;;;;;;;;5032187;28;20538;-81
2021/09/11 12:54:31;;;;;;;5.15;3.00;;;;;;;;;;5033005;28;20381;-78
2021/09/11 12:56:57;;;;;;;7.57;3.05;;;;;;;;;;5051780;28;20029;-79
2021/09/11 12:59:22;;;;;;;6.25;3.00;;;;;;;;;;5052751;28;20037;-78
2021/09/11 13:01:48;;;;;;;4.95;2.83;;;;;;;;;;5051777;28;20041;-78
2021/09/11 13:04:14;;;;;;;4.32;2.30;;;;;;;;;;5051538;28;20036;-79
2021/09/11 13:06:40;;;;;;;7.47;3.00;;;;;;;;;;5051684;28;20090;-78
2021/09/11 13:09:16;;;;;;;7.30;2.40;;;;;;;;;;5051559;28;20036;-81
2021/09/11 13:11:42;;;;;;;3.28;2.17;;;;;;;;;;5051190;28;20086;-78
2021/09/11 13:14:08;;;;;;;6.30;1.90;;;;;;;;;;5051034;28;20111;-78
2021/09/11 13:16:34;;;;;;;2.85;1.45;;;;;;;;;;5051063;28;20113;-79
2021/09/11 13:18:59;;;;;;;2.70;1.65;;;;;;;;;;5051443;28;20095;-79
2021/09/11 13:21:25;;;;;;;3.38;1.95;;;;;;;;;;5051211;28;20136;-78
2021/09/11 13:23:51;;;;;;;3.88;1.83;;;;;;;;;;5050957;28;20021;-78
2021/09/11 13:26:18;;;;;;;4.63;2.10;;;;;;;;;;5051677;28;20060;-78
2021/09/11 13:28:44;;;;;;;5.40;2.28;;;;;;;;;;5050904;28;20041;-79
2021/09/11 13:31:10;;;;;;;4.50;2.10;;;;;;;;;;5051378;28;20029;-79
2021/09/11 13:33:36;;;;;;;4.35;2.30;;;;;;;;;;5051165;28;20473;-79
2021/09/11 13:36:01;;;;;;;4.50;2.33;;;;;;;;;;5050573;28;20033;-78
2021/09/11 13:38:27;;;;;;;4.60;2.03;;;;;;;;;;5050477;28;20556;-79
2021/09/11 13:40:52;;;;;;;3.45;1.50;;;;;;;;;;5050440;28;20048;-80
2021/09/11 13:43:18;;;;;;;4.40;1.83;;;;;;;;;;5050633;28;20041;-78
2021/09/11 13:45:43;;;;;;;3.95;2.25;;;;;;;;;;5050936;28;20021;-78
2021/09/11 13:48:08;;;;;;;4.15;1.90;;;;;;;;;;5050265;28;20048;-79
2021/09/11 13:50:33;;;;;;;8.15;2.53;;;;;;;;;;5050529;28;20115;-78
2021/09/11 13:52:59;;;;;;;3.42;1.80;;;;;;;;;;5050844;28;20116;-79
2021/09/11 13:55:24;;;;;;;4.25;1.70;;;;;;;;;;5048700;28;20036;-78
2021/09/11 13:57:49;;;;;;;8.85;1.77;;;;;;;;;;5047970;28;20374;-81
2021/09/11 14:00:15;;;;;;;5.25;1.80;;;;;;;;;;5051112;28;20032;-78
2021/09/11 14:02:40;;;;;;;5.13;2.10;;;;;;;;;;5050464;28;20080;-78
2021/09/11 14:05:06;;;;;;;3.78;2.00;;;;;;;;;;5050180;28;20029;-78
2021/09/11 14:07:32;;;;;;;4.63;2.17;;;;;;;;;;5050035;28;20017;-79
2021/09/11 14:09:57;;;;;;;6.85;2.00;;;;;;;;;;5050205;28;20037;-78
2021/09/11 14:12:22;;;;;;;4.57;1.98;;;;;;;;;;5032442;28;20036;-78
2021/09/11 14:14:47;;;;;;;4.60;1.90;;;;;;;;;;5030151;28;20076;-79
2021/09/11 14:17:13;;;;;;;7.53;2.28;;;;;;;;;;5030270;28;20029;-77
2021/09/11 14:19:38;;;;;;;7.50;2.05;;;;;;;;;;5030205;28;20474;-79
2021/09/11 14:22:03;;;;;;;3.10;1.88;;;;;;;;;;5030727;28;20040;-78
2021/09/11 14:24:28;;;;;;;5.78;2.13;;;;;;;;;;5030334;28;20474;-78